Flight Track Log - Related Links

Times and Time Zones

All times are in EDT time to prevent confusion due to time zone crossing. See the GJS6221 flight status page for this flight to view local times or setup timezone preferences in your user account.

Time Position Orientation Groundspeed Altitude Reporting Facility
EDT Latitude Longitude Course Direction KTS MPH feet Rate Location/Type
Wed 01:17:32 PM 40.7333 -73.8167 49° Northeast 192 221 2,000  Level New York TRACON
Wed 01:18:32 PM 40.7667 -73.7667 49° Northeast 229 264 4,300 2,350 Climbing New York TRACON
Wed 01:19:32 PM 40.8333 -73.7667 360° North 266 306 6,700 2,544 Climbing New York TRACON
Wed 01:20:37 PM 40.8833 -73.8500 308° West 270 311 9,600 2,448 Climbing New York TRACON
Wed 01:21:37 PM 40.9500 -73.9167 323° Northwest 298 343 11,800 2,150 Climbing New York TRACON
Wed 01:22:37 PM 41.0000 -74.0167 304° West 321 369 13,900 1,884 Climbing New York TRACON
Wed 01:23:38 PM 41.0333 -74.1333 291° West 339 390 15,600 932 Climbing New York TRACON
Wed 01:25:18 PM 41.0717 -74.3483 283° West 388 447 16,400 1,141 Climbing New York Center
Wed 01:26:21 PM 41.1006 -74.4983 284° West 391 450 18,700 2,064 Climbing New York Center
Wed 01:27:23 PM 41.1269 -74.6364 284° West 388 447 20,700 2,000 Climbing New York Center
Wed 01:28:27 PM 41.1739 -74.7703 295° West 375 432 22,900 1,790 Climbing New York Center
Wed 01:29:27 PM 41.2236 -74.8894 299° West 370 426 24,400 1,306 Climbing New York Center
Wed 01:30:31 PM 41.2739 -75.0100 299° West 372 428 25,600 1,056 Climbing New York Center
Wed 01:31:32 PM 41.3275 -75.1331 300° West 382 440 26,600 976 Climbing New York Center
Wed 01:32:34 PM 41.3814 -75.2581 300° West 389 448 27,600 960 Climbing New York Center
Wed 01:33:37 PM 41.4356 -75.3842 300° West 390 449 28,600 1,056 Climbing New York Center
Wed 01:34:39 PM 41.4917 -75.5397 296° West 390 449 29,800 1,073 Climbing New York Center
Wed 01:35:40 PM 41.5328 -75.6772 292° West 387 445 30,800 960 Climbing New York Center
Wed 01:36:44 PM 41.5683 -75.8014 291° West 383 441 31,800 952 Climbing New York Center
Wed 01:37:46 PM 41.6050 -75.9300 291° West 377 434 32,800 823 Climbing New York Center
Wed 01:38:48 PM 41.6406 -76.0575 291° West 373 429 33,500 726 Climbing New York Center
Wed 01:39:50 PM 41.6844 -76.2117 291° West 373 429 34,300 768 Climbing New York Center
Wed 01:40:53 PM 41.7208 -76.3408 291° West 374 430 35,100 769 Climbing New York Center
Wed 01:41:47 PM 41.7506 -76.4544 289° West 373 429 35,800 776 Climbing Cleveland Center
Wed 01:42:49 PM 41.7861 -76.5819 291° West 371 427 36,600 774 Climbing Cleveland Center
Wed 01:43:51 PM 41.8208 -76.7050 291° West 360 414 37,400 677 Climbing Cleveland Center
Wed 01:44:53 PM 41.8603 -76.8531 290° West 351 404 38,000 290 Climbing Cleveland Center
Wed 01:45:55 PM 41.8944 -76.9772 290° West 353 406 38,000  Level Cleveland Center
Wed 01:46:58 PM 41.9294 -77.1036 290° West 357 411 38,000  Level Cleveland Center
Wed 01:48:00 PM 41.9636 -77.2286 290° West 357 411 38,000  Level Cleveland Center
Wed 01:49:02 PM 41.9961 -77.3539 289° West 357 411 38,000  Level Cleveland Center
Wed 01:50:04 PM 42.0297 -77.4778 290° West 356 410 38,000  Level Cleveland Center
Wed 01:51:06 PM 42.0706 -77.6278 290° West 355 409 38,000  Level Cleveland Center
Wed 01:52:08 PM 42.1050 -77.7539 290° West 355 409 38,000  Level Cleveland Center
Wed 01:53:10 PM 42.1389 -77.8819 290° West 358 412 38,000  Level Cleveland Center
Wed 01:54:12 PM 42.1731 -78.0092 290° West 360 414 38,000  Level Cleveland Center
Wed 01:55:14 PM 42.2072 -78.1364 290° West 359 413 38,000  Level Cleveland Center
Wed 01:56:16 PM 42.2411 -78.2658 290° West 361 415 38,000  Level Cleveland Center
Wed 01:57:18 PM 42.2733 -78.3933 289° West 362 417 38,000  Level Cleveland Center
Wed 01:58:20 PM 42.3122 -78.5486 289° West 362 417 38,000  Level Cleveland Center
Wed 01:59:23 PM 42.3431 -78.6764 288° West 360 414 38,000  Level Cleveland Center
Wed 02:00:25 PM 42.3736 -78.8033 288° West 359 413 38,000  Level Cleveland Center
Wed 02:01:27 PM 42.4081 -78.9411 289° West 359 413 38,000  Level Cleveland Center
Wed 02:02:29 PM 42.4389 -79.0658 289° West 356 410 38,000  Level Cleveland Center
Wed 02:03:31 PM 42.4686 -79.1839 289° West 355 409 38,000  Level Cleveland Center
Wed 02:04:33 PM 42.5047 -79.3389 288° West 360 414 38,000  Level Cleveland Center
Wed 02:05:35 PM 42.5358 -79.4681 288° West 360 414 38,000  Level Cleveland Center
Wed 02:06:37 PM 42.5675 -79.5989 288° West 363 418 38,000  Level Cleveland Center
Wed 02:07:39 PM 42.5978 -79.7283 288° West 363 418 38,000  Level Cleveland Center
Wed 02:08:42 PM 42.6167 -79.8597 281° West 359 413 38,000  Level Cleveland Center
Wed 02:09:44 PM 42.6208 -79.9992 272° West 357 411 38,000  Level Cleveland Center
Wed 02:10:46 PM 42.6272 -80.1572 273° West 357 411 38,000  Level Cleveland Center
Wed 02:11:48 PM 42.6336 -80.2944 274° West 358 412 38,000  Level Cleveland Center
Wed 02:12:50 PM 42.6386 -80.4314 273° West 360 414 38,000  Level Cleveland Center
Wed 02:13:52 PM 42.6444 -80.5689 273° West 360 414 38,000  Level Cleveland Center
Wed 02:14:54 PM 42.6494 -80.7083 273° West 365 420 38,000  Level Cleveland Center
Wed 02:15:56 PM 42.6542 -80.8497 273° West 370 426 38,000  Level Cleveland Center
Wed 02:16:59 PM 42.6586 -80.9894 273° West 370 426 38,000  Level Cleveland Center
Wed 02:18:01 PM 42.6636 -81.1547 272° West 370 426 38,000  Level Cleveland Center
Wed 02:19:03 PM 42.6717 -81.2928 275° West 370 426 38,000  Level Cleveland Center
Wed 02:20:05 PM 42.6878 -81.4311 279° West 369 425 38,000  Level Cleveland Center
Wed 02:21:07 PM 42.7028 -81.5703 278° West 369 425 38,000  Level Cleveland Center
Wed 02:22:09 PM 42.7189 -81.7086 279° West 369 425 38,000  Level Cleveland Center
Wed 02:23:11 PM 42.7347 -81.8464 279° West 369 425 38,000  Level Cleveland Center
Wed 02:24:13 PM 42.7489 -81.9839 278° West 368 423 38,000  Level Cleveland Center
Wed 02:25:15 PM 42.7669 -82.1483 279° West 368 423 38,000  Level Cleveland Center
Wed 02:26:18 PM 42.7825 -82.2864 279° West 368 423 38,000  Level Cleveland Center
Wed 02:27:20 PM 42.7969 -82.4242 278° West 369 425 38,000  Level Cleveland Center
Wed 02:28:22 PM 42.8106 -82.5614 278° West 369 425 38,000  Level Cleveland Center
Wed 02:29:24 PM 42.8300 -82.6972 281° West 369 425 38,000  Level Cleveland Center
Wed 02:30:26 PM 42.8525 -82.8617 281° West 369 425 38,000  Level Cleveland Center
Wed 02:31:28 PM 42.8706 -82.9997 280° West 369 425 38,000  Level Cleveland Center
Wed 02:32:30 PM 42.8883 -83.1353 280° West 369 425 38,000  Level Cleveland Center
Wed 02:33:32 PM 42.9067 -83.2725 280° West 372 428 38,000  Level Cleveland Center
Wed 02:34:34 PM 42.9244 -83.4089 280° West 370 426 38,000  Level Cleveland Center
Wed 02:35:37 PM 42.9458 -83.5714 280° West 369 425 38,000  Level Cleveland Center
Wed 02:36:39 PM 42.9625 -83.7075 280° West 369 425 38,000  Level Cleveland Center
Wed 02:37:41 PM 42.9775 -83.8419 279° West 365 420 38,000  Level Cleveland Center
Wed 02:38:43 PM 42.9903 -83.9764 277° West 362 417 38,000  Level Cleveland Center
Wed 02:39:45 PM 43.0025 -84.1108 277° West 361 415 38,000  Level Cleveland Center
Wed 02:40:47 PM 43.0183 -84.2719 278° West 360 414 38,000  Level Cleveland Center
Wed 02:41:49 PM 43.0286 -84.3892 277° West 360 414 38,000  Level Cleveland Center
Wed 02:42:51 PM 43.0431 -84.5511 277° West 360 414 38,000  Level Cleveland Center
Wed 02:43:53 PM 43.0561 -84.6872 278° West 360 414 38,000  Level Cleveland Center
Wed 02:44:56 PM 43.0689 -84.8233 277° West 361 415 38,000  Level Cleveland Center
Wed 02:45:58 PM 43.0800 -84.9594 276° West 362 417 38,000  Level Chicago Center
Wed 02:47:00 PM 43.0928 -85.0975 277° West 363 418 38,000 -242 Level Chicago Center
Wed 02:48:02 PM 43.1067 -85.2619 277° West 364 419 37,500 -871 Descending Chicago Center
Wed 02:49:04 PM 43.1183 -85.3994 277° West 364 419 36,200 -1,344 Descending Chicago Center
Wed 02:50:07 PM 43.1294 -85.5439 276° West 376 433 34,700 -1,440 Descending Chicago Center
Wed 02:51:09 PM 43.1431 -85.6942 277° West 395 455 33,200 -1,452 Descending Chicago Center
Wed 02:52:11 PM 43.1553 -85.8456 276° West 396 456 31,700 -2,081 Descending Chicago Center
Wed 02:53:13 PM 43.1683 -86.0194 276° West 399 459 28,900 -2,758 Descending Chicago Center
Wed 02:54:15 PM 43.1681 -86.1636 270° West 394 453 26,000 -2,371 Descending Chicago Center
Wed 02:55:17 PM 43.1653 -86.3069 269° West 385 443 24,000 -1,016 Descending Chicago Center
Wed 02:56:19 PM 43.1631 -86.4500 269° West 382 440 23,900 -1,597 Descending Chicago Center
Wed 02:57:21 PM 43.1606 -86.6300 269° West 394 453 20,700 -2,880 Descending Chicago Center
Wed 02:58:24 PM 43.1569 -86.7731 268° West 383 441 17,900 -2,544 Descending Chicago Center
Wed 02:59:26 PM 43.1536 -86.9153 268° West 375 432 15,400 -1,872 Descending Chicago Center
Wed 03:00:29 PM 43.1511 -87.0503 269° West 359 413 14,000 -871 Descending Chicago Center
Wed 03:01:30 PM 43.1481 -87.1836 268° West 354 407 13,600 -1,122 Descending Chicago Center
Wed 03:02:32 PM 43.1439 -87.3447 268° West 352 405 11,700 -1,694 Descending Chicago Center
Wed 03:03:34 PM 43.1364 -87.4642 265° West 346 398 10,100 -823 Descending Chicago Center
Wed 03:04:36 PM 43.1269 -87.5944 264° West 344 396 10,000 -145 Descending Chicago Center
Wed 03:05:38 PM 43.1083 -87.7158 258° West 323 372 9,800 -1,248 Descending Chicago Center
Wed 03:06:41 PM 43.0808 -87.8414 253° West 290 334 7,400 -1,344 Descending Chicago Center
Wed 03:07:43 PM 43.0581 -87.9456 253° West 288 331 7,000 -1,065 Descending Chicago Center
Wed 03:08:45 PM 43.0144 -88.0331 236° Southwest 278 320 5,200 -1,984 Descending Chicago Center
Wed 03:09:47 PM 42.9772 -88.1119 237° Southwest 259 298 2,900 -1,210 Descending Chicago Center
Wed 03:10:49 PM 42.9333 -88.1381 204° Southwest 231 266 2,700 -96 Descending Chicago Center
Wed 03:11:52 PM 42.8956 -88.1014 145° Southeast 202 232 2,700 -145 Level Chicago Center
Wed 03:12:53 PM 42.9153 -88.0222 71° East 197 227 2,400 -484 Descending Chicago Center
Wed 03:13:56 PM 42.9244 -87.9772 74° East 161 185 1,700 -528 Descending Chicago Center
Wed 03:14:58 PM 42.9369 -87.9272 71° East 145 167 1,300 -387 Descending Chicago Center
Wed 03:16:00 PM 42.9469 -87.8971 72° East  Level Estimated
Wed 03:23:00 PM 42.9469 -87.8971 72° East  Level Estimated

Login

Don't have an account? Register now (free) for customized features, flight alerts, and more!